Terminal Aerodrome Forecast
Issued by NWS Duluth, MN

Home | Current Version | Previous Version | Text Only | Print | Product List | Glossary On
Versions: 1 2 3 4 5 6 7 8 9 10 11 12 13 14 15 16 17 18 19 20 21 22 23 24 25 26 27 28 29 30 31 32 33 34 35
673
FTUS43 KDLH 042112 AAC
TAFINL
TAF AMD
KINL 042112Z 0421/0518 15007KT 5SM BR OVC013
      TEMPO 0421/0423 2SM -SN BR
     FM050000 18006KT P6SM VCSH OVC010
     FM050200 23005KT P6SM OVC008
     FM051400 16004KT P6SM BKN008
     FM051600 14005KT P6SM BKN020=

USA.gov is the U.S. government's official web portal to all federal, state and local government web resources and services.